sensor_id;sensor_type;location;lat;lon;timestamp;P1;P2;P0
77320;PMS7003;66382;52.252;8.780;2023-05-10T00:00:48;11.50;11.50;8.75
77320;PMS7003;66382;52.252;8.780;2023-05-10T00:03:13;11.00;11.00;8.00
77320;PMS7003;66382;52.252;8.780;2023-05-10T00:05:39;9.67;9.67;7.33
77320;PMS7003;66382;52.252;8.780;2023-05-10T00:08:05;11.00;11.00;7.33
77320;PMS7003;66382;52.252;8.780;2023-05-10T00:10:30;6.00;6.00;4.00
77320;PMS7003;66382;52.252;8.780;2023-05-10T00:12:56;9.33;9.33;8.00
77320;PMS7003;66382;52.252;8.780;2023-05-10T00:15:23;10.67;10.67;7.33
77320;PMS7003;66382;52.252;8.780;2023-05-10T00:17:49;8.00;8.00;6.00
77320;PMS7003;66382;52.252;8.780;2023-05-10T00:20:14;12.67;12.67;8.00
77320;PMS7003;66382;52.252;8.780;2023-05-10T00:22:40;10.67;10.67;7.33
77320;PMS7003;66382;52.252;8.780;2023-05-10T00:25:07;11.00;10.33;9.33
77320;PMS7003;66382;52.252;8.780;2023-05-10T00:27:33;8.75;8.75;6.25
77320;PMS7003;66382;52.252;8.780;2023-05-10T00:29:59;10.33;10.33;7.33
77320;PMS7003;66382;52.252;8.780;2023-05-10T00:32:26;10.67;10.67;8.00
77320;PMS7003;66382;52.252;8.780;2023-05-10T00:34:51;11.50;11.50;8.00
77320;PMS7003;66382;52.252;8.780;2023-05-10T00:37:17;9.33;9.33;7.00
77320;PMS7003;66382;52.252;8.780;2023-05-10T00:39:43;8.33;8.33;7.00
77320;PMS7003;66382;52.252;8.780;2023-05-10T00:42:09;10.00;10.00;7.00
77320;PMS7003;66382;52.252;8.780;2023-05-10T00:44:34;11.00;11.00;8.00
77320;PMS7003;66382;52.252;8.780;2023-05-10T00:47:00;12.00;12.00;8.00
77320;PMS7003;66382;52.252;8.780;2023-05-10T00:49:27;10.00;10.00;8.00
77320;PMS7003;66382;52.252;8.780;2023-05-10T00:51:53;12.50;12.50;9.75
77320;PMS7003;66382;52.252;8.780;2023-05-10T00:54:19;11.00;11.00;8.00
77320;PMS7003;66382;52.252;8.780;2023-05-10T00:56:45;11.67;11.67;8.00
77320;PMS7003;66382;52.252;8.780;2023-05-10T00:59:11;12.00;12.00;9.67
77320;PMS7003;66382;52.252;8.780;2023-05-10T01:01:36;12.00;12.00;10.00
77320;PMS7003;66382;52.252;8.780;2023-05-10T01:04:03;12.50;12.50;10.25
77320;PMS7003;66382;52.252;8.780;2023-05-10T01:06:30;11.75;11.75;9.50
77320;PMS7003;66382;52.252;8.780;2023-05-10T01:08:56;13.00;11.75;9.50
77320;PMS7003;66382;52.252;8.780;2023-05-10T01:11:22;14.33;14.33;11.33
77320;PMS7003;66382;52.252;8.780;2023-05-10T01:13:50;12.00;12.00;9.67
77320;PMS7003;66382;52.252;8.780;2023-05-10T01:16:20;12.75;12.75;9.75
77320;PMS7003;66382;52.252;8.780;2023-05-10T01:18:46;15.33;15.33;11.67
77320;PMS7003;66382;52.252;8.780;2023-05-10T01:21:14;12.50;12.50;10.25
77320;PMS7003;66382;52.252;8.780;2023-05-10T01:33:00;18.50;18.50;13.00
77320;PMS7003;66382;52.252;8.780;2023-05-10T01:35:30;15.75;15.75;11.25
77320;PMS7003;66382;52.252;8.780;2023-05-10T01:38:04;18.25;18.25;11.75
77320;PMS7003;66382;52.252;8.780;2023-05-10T01:40:37;13.75;13.00;7.75
77320;PMS7003;66382;52.252;8.780;2023-05-10T01:43:11;15.00;15.00;10.25
77320;PMS7003;66382;52.252;8.780;2023-05-10T01:45:46;12.50;12.50;10.00
77320;PMS7003;66382;52.252;8.780;2023-05-10T01:48:17;14.50;14.50;11.50
77320;PMS7003;66382;52.252;8.780;2023-05-10T01:50:45;17.50;16.00;12.50
77320;PMS7003;66382;52.252;8.780;2023-05-10T01:53:13;13.00;13.00;10.25
77320;PMS7003;66382;52.252;8.780;2023-05-10T01:55:45;10.75;10.75;9.25
77320;PMS7003;66382;52.252;8.780;2023-05-10T01:58:14;14.75;14.75;11.50
77320;PMS7003;66382;52.252;8.780;2023-05-10T02:00:44;13.00;13.00;10.25
77320;PMS7003;66382;52.252;8.780;2023-05-10T02:03:11;15.25;15.25;12.00
77320;PMS7003;66382;52.252;8.780;2023-05-10T02:05:40;19.50;19.50;14.00
77320;PMS7003;66382;52.252;8.780;2023-05-10T02:08:08;16.25;16.25;13.25
77320;PMS7003;66382;52.252;8.780;2023-05-10T02:10:34;20.50;20.50;13.50
77320;PMS7003;66382;52.252;8.780;2023-05-10T02:13:01;18.50;18.50;13.50
77320;PMS7003;66382;52.252;8.780;2023-05-10T02:15:28;18.50;18.50;13.25
77320;PMS7003;66382;52.252;8.780;2023-05-10T02:17:55;18.25;18.25;15.00
77320;PMS7003;66382;52.252;8.780;2023-05-10T02:20:22;16.00;16.00;12.50
77320;PMS7003;66382;52.252;8.780;2023-05-10T02:22:51;20.00;20.00;13.75
77320;PMS7003;66382;52.252;8.780;2023-05-10T02:25:19;16.50;16.50;12.25
77320;PMS7003;66382;52.252;8.780;2023-05-10T02:27:47;20.25;20.25;15.75
77320;PMS7003;66382;52.252;8.780;2023-05-10T02:30:14;17.75;17.75;12.75
77320;PMS7003;66382;52.252;8.780;2023-05-10T02:32:41;18.75;18.75;14.75
77320;PMS7003;66382;52.252;8.780;2023-05-10T02:35:08;14.50;14.50;12.50
77320;PMS7003;66382;52.252;8.780;2023-05-10T02:37:36;17.75;17.75;14.25
77320;PMS7003;66382;52.252;8.780;2023-05-10T02:40:05;19.25;19.25;14.00
77320;PMS7003;66382;52.252;8.780;2023-05-10T02:42:33;16.25;16.25;13.00
77320;PMS7003;66382;52.252;8.780;2023-05-10T02:45:03;17.25;17.25;13.50
77320;PMS7003;66382;52.252;8.780;2023-05-10T02:47:33;18.75;18.50;13.75
77320;PMS7003;66382;52.252;8.780;2023-05-10T02:49:59;15.25;15.25;11.50
77320;PMS7003;66382;52.252;8.780;2023-05-10T02:52:25;18.25;17.25;13.50
77320;PMS7003;66382;52.252;8.780;2023-05-10T02:54:55;19.00;19.00;12.50
77320;PMS7003;66382;52.252;8.780;2023-05-10T02:57:28;14.75;14.75;10.50
77320;PMS7003;66382;52.252;8.780;2023-05-10T02:59:57;14.25;14.25;10.75
77320;PMS7003;66382;52.252;8.780;2023-05-10T03:02:23;14.67;14.67;11.33
77320;PMS7003;66382;52.252;8.780;2023-05-10T03:04:48;10.33;10.33;9.33
77320;PMS7003;66382;52.252;8.780;2023-05-10T03:07:14;11.33;11.33;8.00
77320;PMS7003;66382;52.252;8.780;2023-05-10T03:09:40;10.25;10.25;8.25
77320;PMS7003;66382;52.252;8.780;2023-05-10T03:12:07;12.00;11.50;9.00
77320;PMS7003;66382;52.252;8.780;2023-05-10T03:14:42;9.25;9.25;7.00
77320;PMS7003;66382;52.252;8.780;2023-05-10T03:17:15;9.75;9.75;6.25
77320;PMS7003;66382;52.252;8.780;2023-05-10T03:19:48;7.25;7.25;6.00
77320;PMS7003;66382;52.252;8.780;2023-05-10T03:22:21;6.75;6.75;5.50
77320;PMS7003;66382;52.252;8.780;2023-05-10T03:24:50;7.00;7.00;5.75
77320;PMS7003;66382;52.252;8.780;2023-05-10T03:27:19;8.50;8.50;6.00
77320;PMS7003;66382;52.252;8.780;2023-05-10T03:29:48;8.00;8.00;5.50
77320;PMS7003;66382;52.252;8.780;2023-05-10T03:32:16;4.50;4.50;3.25
77320;PMS7003;66382;52.252;8.780;2023-05-10T03:34:42;7.67;7.67;5.33
77320;PMS7003;66382;52.252;8.780;2023-05-10T03:37:08;6.67;6.67;5.67
77320;PMS7003;66382;52.252;8.780;2023-05-10T03:39:33;6.33;6.33;5.33
77320;PMS7003;66382;52.252;8.780;2023-05-10T03:41:59;9.67;9.67;6.33
77320;PMS7003;66382;52.252;8.780;2023-05-10T03:44:25;8.67;8.67;7.00
77320;PMS7003;66382;52.252;8.780;2023-05-10T03:46:52;7.00;7.00;5.00
77320;PMS7003;66382;52.252;8.780;2023-05-10T03:49:17;7.00;7.00;6.00
77320;PMS7003;66382;52.252;8.780;2023-05-10T03:51:43;7.00;7.00;5.67
77320;PMS7003;66382;52.252;8.780;2023-05-10T03:54:09;7.00;7.00;6.00
77320;PMS7003;66382;52.252;8.780;2023-05-10T03:56:35;8.67;8.67;5.67
77320;PMS7003;66382;52.252;8.780;2023-05-10T03:59:00;9.00;9.00;5.33
77320;PMS7003;66382;52.252;8.780;2023-05-10T04:01:26;10.67;10.67;6.00
77320;PMS7003;66382;52.252;8.780;2023-05-10T04:03:53;5.33;5.33;5.00
77320;PMS7003;66382;52.252;8.780;2023-05-10T04:06:19;7.75;7.75;6.50
77320;PMS7003;66382;52.252;8.780;2023-05-10T04:08:44;7.00;7.00;5.33
77320;PMS7003;66382;52.252;8.780;2023-05-10T04:11:10;7.67;7.67;6.00
77320;PMS7003;66382;52.252;8.780;2023-05-10T04:13:37;7.00;7.00;5.00
77320;PMS7003;66382;52.252;8.780;2023-05-10T04:16:03;6.00;6.00;5.00
77320;PMS7003;66382;52.252;8.780;2023-05-10T04:18:29;7.00;7.00;5.25
77320;PMS7003;66382;52.252;8.780;2023-05-10T04:20:56;6.67;6.67;5.00
77320;PMS7003;66382;52.252;8.780;2023-05-10T04:23:22;6.50;6.50;5.50
77320;PMS7003;66382;52.252;8.780;2023-05-10T04:25:47;8.33;8.33;6.00
77320;PMS7003;66382;52.252;8.780;2023-05-10T04:28:13;7.67;7.67;5.67
77320;PMS7003;66382;52.252;8.780;2023-05-10T04:30:39;6.00;6.00;6.00
77320;PMS7003;66382;52.252;8.780;2023-05-10T04:33:05;7.00;7.00;5.00
77320;PMS7003;66382;52.252;8.780;2023-05-10T04:35:31;4.33;4.33;4.33
77320;PMS7003;66382;52.252;8.780;2023-05-10T04:37:58;6.00;6.00;5.67
77320;PMS7003;66382;52.252;8.780;2023-05-10T04:40:23;6.00;6.00;5.00
77320;PMS7003;66382;52.252;8.780;2023-05-10T04:42:49;5.00;5.00;4.00
77320;PMS7003;66382;52.252;8.780;2023-05-10T04:45:15;7.67;7.67;6.00
77320;PMS7003;66382;52.252;8.780;2023-05-10T04:47:40;5.67;5.67;5.67
77320;PMS7003;66382;52.252;8.780;2023-05-10T04:50:06;7.33;7.33;5.33
77320;PMS7003;66382;52.252;8.780;2023-05-10T04:52:33;3.25;3.25;2.25
77320;PMS7003;66382;52.252;8.780;2023-05-10T04:55:00;7.00;7.00;5.33
77320;PMS7003;66382;52.252;8.780;2023-05-10T04:57:26;6.75;6.75;4.75
77320;PMS7003;66382;52.252;8.780;2023-05-10T04:59:52;6.00;6.00;5.00
77320;PMS7003;66382;52.252;8.780;2023-05-10T05:02:17;7.67;7.00;6.33
77320;PMS7003;66382;52.252;8.780;2023-05-10T05:04:43;6.00;6.00;5.00
77320;PMS7003;66382;52.252;8.780;2023-05-10T05:07:09;5.67;5.67;4.00
77320;PMS7003;66382;52.252;8.780;2023-05-10T05:09:34;2.33;2.33;2.00
77320;PMS7003;66382;52.252;8.780;2023-05-10T05:12:02;0.67;0.67;0.33
77320;PMS7003;66382;52.252;8.780;2023-05-10T05:14:27;1.00;1.00;1.00
77320;PMS7003;66382;52.252;8.780;2023-05-10T05:16:53;0.00;0.00;0.00
77320;PMS7003;66382;52.252;8.780;2023-05-10T05:19:19;0.00;0.00;0.00
77320;PMS7003;66382;52.252;8.780;2023-05-10T05:21:45;0.00;0.00;0.00
77320;PMS7003;66382;52.252;8.780;2023-05-10T05:24:10;0.00;0.00;0.00
77320;PMS7003;66382;52.252;8.780;2023-05-10T05:26:36;0.00;0.00;0.00
77320;PMS7003;66382;52.252;8.780;2023-05-10T05:29:03;1.00;1.00;0.67
77320;PMS7003;66382;52.252;8.780;2023-05-10T05:31:29;0.00;0.00;0.00
77320;PMS7003;66382;52.252;8.780;2023-05-10T05:33:55;0.00;0.00;0.00
77320;PMS7003;66382;52.252;8.780;2023-05-10T05:36:20;1.00;1.00;1.00
77320;PMS7003;66382;52.252;8.780;2023-05-10T05:38:47;0.25;0.25;0.00
77320;PMS7003;66382;52.252;8.780;2023-05-10T05:41:13;1.00;1.00;1.00
77320;PMS7003;66382;52.252;8.780;2023-05-10T05:43:38;1.00;1.00;1.00
77320;PMS7003;66382;52.252;8.780;2023-05-10T05:46:05;1.00;1.00;0.33
77320;PMS7003;66382;52.252;8.780;2023-05-10T05:48:31;1.00;1.00;1.00
77320;PMS7003;66382;52.252;8.780;2023-05-10T05:50:57;0.00;0.00;0.00
77320;PMS7003;66382;52.252;8.780;2023-05-10T05:53:23;0.00;0.00;0.00
77320;PMS7003;66382;52.252;8.780;2023-05-10T05:55:52;1.33;1.33;1.00
77320;PMS7003;66382;52.252;8.780;2023-05-10T05:58:18;0.00;0.00;0.00
77320;PMS7003;66382;52.252;8.780;2023-05-10T06:00:43;0.33;0.33;0.33
77320;PMS7003;66382;52.252;8.780;2023-05-10T06:03:11;0.00;0.00;0.00
77320;PMS7003;66382;52.252;8.780;2023-05-10T06:05:36;0.00;0.00;0.00
77320;PMS7003;66382;52.252;8.780;2023-05-10T06:08:02;0.00;0.00;0.00
77320;PMS7003;66382;52.252;8.780;2023-05-10T06:10:28;0.00;0.00;0.00
77320;PMS7003;66382;52.252;8.780;2023-05-10T06:12:54;0.00;0.00;0.00
77320;PMS7003;66382;52.252;8.780;2023-05-10T06:15:19;1.00;1.00;1.00
77320;PMS7003;66382;52.252;8.780;2023-05-10T06:17:45;0.00;0.00;0.00
77320;PMS7003;66382;52.252;8.780;2023-05-10T06:20:13;0.00;0.00;0.00
77320;PMS7003;66382;52.252;8.780;2023-05-10T06:22:39;1.00;1.00;1.00
77320;PMS7003;66382;52.252;8.780;2023-05-10T06:25:05;1.00;1.00;1.00
77320;PMS7003;66382;52.252;8.780;2023-05-10T06:27:31;1.75;1.75;1.25
77320;PMS7003;66382;52.252;8.780;2023-05-10T06:29:57;2.00;2.00;2.00
77320;PMS7003;66382;52.252;8.780;2023-05-10T06:32:22;3.67;3.67;2.67
77320;PMS7003;66382;52.252;8.780;2023-05-10T06:34:48;2.33;2.33;2.00
77320;PMS7003;66382;52.252;8.780;2023-05-10T06:37:15;1.00;1.00;0.00
77320;PMS7003;66382;52.252;8.780;2023-05-10T06:39:41;2.75;2.75;2.00
77320;PMS7003;66382;52.252;8.780;2023-05-10T06:42:07;3.33;3.33;2.33
77320;PMS7003;66382;52.252;8.780;2023-05-10T06:44:33;2.67;2.67;2.00
77320;PMS7003;66382;52.252;8.780;2023-05-10T06:46:58;4.00;4.00;3.00
77320;PMS7003;66382;52.252;8.780;2023-05-10T06:49:24;4.00;4.00;3.00
77320;PMS7003;66382;52.252;8.780;2023-05-10T06:51:50;4.67;4.67;4.00
77320;PMS7003;66382;52.252;8.780;2023-05-10T06:54:17;3.33;3.33;3.00
77320;PMS7003;66382;52.252;8.780;2023-05-10T06:56:43;3.25;3.25;3.00
77320;PMS7003;66382;52.252;8.780;2023-05-10T06:59:08;4.00;4.00;3.33
77320;PMS7003;66382;52.252;8.780;2023-05-10T07:01:34;3.67;3.67;2.33
77320;PMS7003;66382;52.252;8.780;2023-05-10T07:04:00;4.00;4.00;3.00
77320;PMS7003;66382;52.252;8.780;2023-05-10T07:06:25;4.00;4.00;3.67
77320;PMS7003;66382;52.252;8.780;2023-05-10T07:08:51;4.67;4.67;4.00
77320;PMS7003;66382;52.252;8.780;2023-05-10T07:11:18;4.00;4.00;3.00
77320;PMS7003;66382;52.252;8.780;2023-05-10T07:13:44;3.50;3.50;2.75
77320;PMS7003;66382;52.252;8.780;2023-05-10T07:16:10;5.00;5.00;3.67
77320;PMS7003;66382;52.252;8.780;2023-05-10T07:18:35;4.67;4.67;4.00
77320;PMS7003;66382;52.252;8.780;2023-05-10T07:21:01;2.00;2.00;2.00
77320;PMS7003;66382;52.252;8.780;2023-05-10T07:23:27;3.00;3.00;3.00
77320;PMS7003;66382;52.252;8.780;2023-05-10T07:25:53;3.00;3.00;3.00
77320;PMS7003;66382;52.252;8.780;2023-05-10T07:28:20;4.00;4.00;3.25
77320;PMS7003;66382;52.252;8.780;2023-05-10T07:30:46;3.00;3.00;3.00
77320;PMS7003;66382;52.252;8.780;2023-05-10T07:33:12;3.67;3.67;3.00
77320;PMS7003;66382;52.252;8.780;2023-05-10T07:35:39;5.00;5.00;4.00
77320;PMS7003;66382;52.252;8.780;2023-05-10T07:38:05;4.00;4.00;3.67
77320;PMS7003;66382;52.252;8.780;2023-05-10T07:40:30;5.00;5.00;4.00
77320;PMS7003;66382;52.252;8.780;2023-05-10T07:42:56;4.00;4.00;3.25
77320;PMS7003;66382;52.252;8.780;2023-05-10T07:45:24;4.00;4.00;3.33
77320;PMS7003;66382;52.252;8.780;2023-05-10T07:47:49;4.00;4.00;3.50
77320;PMS7003;66382;52.252;8.780;2023-05-10T07:50:15;5.00;5.00;4.00
77320;PMS7003;66382;52.252;8.780;2023-05-10T07:52:41;3.00;3.00;2.67
77320;PMS7003;66382;52.252;8.780;2023-05-10T07:55:07;6.00;6.00;5.00
77320;PMS7003;66382;52.252;8.780;2023-05-10T07:57:34;8.50;8.50;6.00
77320;PMS7003;66382;52.252;8.780;2023-05-10T08:00:00;6.50;6.50;6.00
77320;PMS7003;66382;52.252;8.780;2023-05-10T08:02:27;9.00;9.00;6.67
77320;PMS7003;66382;52.252;8.780;2023-05-10T08:04:53;3.00;3.00;2.00
77320;PMS7003;66382;52.252;8.780;2023-05-10T08:07:18;5.67;5.67;5.00
77320;PMS7003;66382;52.252;8.780;2023-05-10T08:09:44;6.00;6.00;5.00
77320;PMS7003;66382;52.252;8.780;2023-05-10T08:12:10;5.00;5.00;5.00
77320;PMS7003;66382;52.252;8.780;2023-05-10T08:14:35;7.00;7.00;5.00
77320;PMS7003;66382;52.252;8.780;2023-05-10T08:17:01;6.00;6.00;3.33
77320;PMS7003;66382;52.252;8.780;2023-05-10T08:19:29;5.00;5.00;4.00
77320;PMS7003;66382;52.252;8.780;2023-05-10T08:21:54;4.25;4.25;4.25
77320;PMS7003;66382;52.252;8.780;2023-05-10T08:24:20;4.00;4.00;3.00
77320;PMS7003;66382;52.252;8.780;2023-05-10T08:26:46;5.33;5.33;4.00
77320;PMS7003;66382;52.252;8.780;2023-05-10T08:29:11;6.00;6.00;5.00
77320;PMS7003;66382;52.252;8.780;2023-05-10T08:31:37;6.33;6.33;5.00
77320;PMS7003;66382;52.252;8.780;2023-05-10T08:34:03;6.00;6.00;5.33
77320;PMS7003;66382;52.252;8.780;2023-05-10T08:36:30;5.67;5.67;4.67
77320;PMS7003;66382;52.252;8.780;2023-05-10T08:38:55;6.50;6.50;5.00
77320;PMS7003;66382;52.252;8.780;2023-05-10T08:41:21;7.00;7.00;6.00
77320;PMS7003;66382;52.252;8.780;2023-05-10T08:43:48;6.50;6.50;5.50
77320;PMS7003;66382;52.252;8.780;2023-05-10T08:46:15;6.50;6.50;5.50
77320;PMS7003;66382;52.252;8.780;2023-05-10T08:48:42;6.75;6.75;5.75
77320;PMS7003;66382;52.252;8.780;2023-05-10T08:51:08;6.25;6.25;5.00
77320;PMS7003;66382;52.252;8.780;2023-05-10T08:53:38;11.75;11.75;8.00
77320;PMS7003;66382;52.252;8.780;2023-05-10T08:56:04;10.50;10.50;8.00
77320;PMS7003;66382;52.252;8.780;2023-05-10T08:58:31;10.25;10.25;7.25
77320;PMS7003;66382;52.252;8.780;2023-05-10T09:00:57;8.75;8.75;6.00
77320;PMS7003;66382;52.252;8.780;2023-05-10T09:03:23;7.50;7.50;6.25
77320;PMS7003;66382;52.252;8.780;2023-05-10T09:05:49;8.00;8.00;6.00
77320;PMS7003;66382;52.252;8.780;2023-05-10T09:08:14;9.00;9.00;8.00
77320;PMS7003;66382;52.252;8.780;2023-05-10T09:10:42;8.00;7.00;4.00
77320;PMS7003;66382;52.252;8.780;2023-05-10T09:13:08;10.25;10.25;7.00
77320;PMS7003;66382;52.252;8.780;2023-05-10T09:15:36;9.75;9.75;7.00
77320;PMS7003;66382;52.252;8.780;2023-05-10T09:18:01;8.00;8.00;7.00
77320;PMS7003;66382;52.252;8.780;2023-05-10T09:20:27;8.00;8.00;7.00
77320;PMS7003;66382;52.252;8.780;2023-05-10T09:22:53;5.50;5.50;4.00
77320;PMS7003;66382;52.252;8.780;2023-05-10T09:25:19;9.00;9.00;7.00
77320;PMS7003;66382;52.252;8.780;2023-05-10T09:27:47;10.00;10.00;7.00
77320;PMS7003;66382;52.252;8.780;2023-05-10T09:30:15;11.50;11.50;7.75
77320;PMS7003;66382;52.252;8.780;2023-05-10T09:32:43;10.25;10.25;7.75
77320;PMS7003;66382;52.252;8.780;2023-05-10T09:35:10;11.75;11.75;8.75
77320;PMS7003;66382;52.252;8.780;2023-05-10T09:37:38;10.75;10.75;7.00
77320;PMS7003;66382;52.252;8.780;2023-05-10T09:40:05;12.75;12.75;9.25
77320;PMS7003;66382;52.252;8.780;2023-05-10T09:42:31;11.25;11.25;8.00
77320;PMS7003;66382;52.252;8.780;2023-05-10T09:45:01;15.00;15.00;11.33
77320;PMS7003;66382;52.252;8.780;2023-05-10T09:47:28;12.00;12.00;8.00
77320;PMS7003;66382;52.252;8.780;2023-05-10T09:49:53;10.00;10.00;7.67
77320;PMS7003;66382;52.252;8.780;2023-05-10T09:52:19;13.67;13.67;9.33
77320;PMS7003;66382;52.252;8.780;2023-05-10T09:54:45;13.67;13.67;8.67
77320;PMS7003;66382;52.252;8.780;2023-05-10T09:57:18;12.25;12.25;9.00
77320;PMS7003;66382;52.252;8.780;2023-05-10T09:59:45;12.50;12.50;9.00
77320;PMS7003;66382;52.252;8.780;2023-05-10T10:02:13;10.00;10.00;8.00
77320;PMS7003;66382;52.252;8.780;2023-05-10T10:04:40;15.50;15.50;10.00
77320;PMS7003;66382;52.252;8.780;2023-05-10T10:07:06;11.50;11.50;8.00
77320;PMS7003;66382;52.252;8.780;2023-05-10T10:09:32;13.00;13.00;10.00
77320;PMS7003;66382;52.252;8.780;2023-05-10T10:11:59;14.50;14.00;10.00
77320;PMS7003;66382;52.252;8.780;2023-05-10T10:14:25;14.25;14.25;10.75
77320;PMS7003;66382;52.252;8.780;2023-05-10T10:16:53;11.33;11.33;8.00
77320;PMS7003;66382;52.252;8.780;2023-05-10T10:19:21;11.75;11.75;9.00
77320;PMS7003;66382;52.252;8.780;2023-05-10T10:21:47;13.75;13.75;10.25
77320;PMS7003;66382;52.252;8.780;2023-05-10T10:24:13;14.67;14.67;10.00
77320;PMS7003;66382;52.252;8.780;2023-05-10T10:26:39;12.67;12.67;8.67
77320;PMS7003;66382;52.252;8.780;2023-05-10T10:29:08;12.25;12.25;8.00
77320;PMS7003;66382;52.252;8.780;2023-05-10T10:31:45;12.00;12.00;8.75
77320;PMS7003;66382;52.252;8.780;2023-05-10T10:34:17;10.00;10.00;7.50
77320;PMS7003;66382;52.252;8.780;2023-05-10T10:36:50;11.50;11.50;10.00
77320;PMS7003;66382;52.252;8.780;2023-05-10T10:39:19;10.00;10.00;7.25
77320;PMS7003;66382;52.252;8.780;2023-05-10T10:41:49;10.00;10.00;7.00
77320;PMS7003;66382;52.252;8.780;2023-05-10T10:44:25;8.75;8.75;7.50
77320;PMS7003;66382;52.252;8.780;2023-05-10T10:47:02;9.50;9.50;6.25
77320;PMS7003;66382;52.252;8.780;2023-05-10T10:49:32;10.00;10.00;8.00
77320;PMS7003;66382;52.252;8.780;2023-05-10T10:52:15;10.00;10.00;8.00
77320;PMS7003;66382;52.252;8.780;2023-05-10T10:54:49;9.00;9.00;6.25
77320;PMS7003;66382;52.252;8.780;2023-05-10T10:57:17;11.25;11.25;8.00
77320;PMS7003;66382;52.252;8.780;2023-05-10T10:59:44;10.75;10.75;8.25
77320;PMS7003;66382;52.252;8.780;2023-05-10T11:02:10;10.00;10.00;7.50
77320;PMS7003;66382;52.252;8.780;2023-05-10T11:05:01;9.50;9.50;7.75
77320;PMS7003;66382;52.252;8.780;2023-05-10T11:08:14;9.25;9.25;7.00
77320;PMS7003;66382;52.252;8.780;2023-05-10T11:10:52;11.75;11.75;8.00
77320;PMS7003;66382;52.252;8.780;2023-05-10T11:13:27;9.75;9.75;7.50
77320;PMS7003;66382;52.252;8.780;2023-05-10T11:15:54;10.50;10.50;8.25
77320;PMS7003;66382;52.252;8.780;2023-05-10T11:18:20;8.50;8.50;7.00
77320;PMS7003;66382;52.252;8.780;2023-05-10T11:20:55;10.00;10.00;8.00
77320;PMS7003;66382;52.252;8.780;2023-05-10T11:23:23;9.00;9.00;6.75
77320;PMS7003;66382;52.252;8.780;2023-05-10T11:25:54;10.25;10.25;8.00
77320;PMS7003;66382;52.252;8.780;2023-05-10T11:28:20;9.00;9.00;8.00
77320;PMS7003;66382;52.252;8.780;2023-05-10T11:30:46;9.33;9.33;6.67
77320;PMS7003;66382;52.252;8.780;2023-05-10T11:33:15;7.75;7.75;6.00
77320;PMS7003;66382;52.252;8.780;2023-05-10T11:35:42;6.60;6.60;5.00
77320;PMS7003;66382;52.252;8.780;2023-05-10T11:38:09;7.00;7.00;4.67
77320;PMS7003;66382;52.252;8.780;2023-05-10T11:40:37;8.00;8.00;7.00
77320;PMS7003;66382;52.252;8.780;2023-05-10T11:43:03;8.75;8.75;6.25
77320;PMS7003;66382;52.252;8.780;2023-05-10T11:45:31;6.50;6.50;6.00
77320;PMS7003;66382;52.252;8.780;2023-05-10T11:47:58;8.75;8.75;6.75
77320;PMS7003;66382;52.252;8.780;2023-05-10T11:50:24;10.00;10.00;7.50
77320;PMS7003;66382;52.252;8.780;2023-05-10T11:52:51;8.50;8.50;7.25
77320;PMS7003;66382;52.252;8.780;2023-05-10T11:55:18;13.00;13.00;7.00
77320;PMS7003;66382;52.252;8.780;2023-05-10T11:57:44;11.00;11.00;9.00
77320;PMS7003;66382;52.252;8.780;2023-05-10T12:00:11;10.00;10.00;7.00
77320;PMS7003;66382;52.252;8.780;2023-05-10T12:02:37;9.25;9.25;6.25
77320;PMS7003;66382;52.252;8.780;2023-05-10T12:05:04;8.50;8.50;6.00
77320;PMS7003;66382;52.252;8.780;2023-05-10T12:07:31;10.75;10.75;8.00
77320;PMS7003;66382;52.252;8.780;2023-05-10T12:10:03;7.33;7.33;7.00
77320;PMS7003;66382;52.252;8.780;2023-05-10T12:12:41;9.75;9.75;8.50
77320;PMS7003;66382;52.252;8.780;2023-05-10T12:15:10;10.00;9.25;7.25
77320;PMS7003;66382;52.252;8.780;2023-05-10T12:17:37;9.50;9.50;7.00
77320;PMS7003;66382;52.252;8.780;2023-05-10T12:20:18;8.75;8.75;7.00
77320;PMS7003;66382;52.252;8.780;2023-05-10T12:22:46;8.25;8.25;6.25
77320;PMS7003;66382;52.252;8.780;2023-05-10T12:25:14;6.50;6.50;5.75
77320;PMS7003;66382;52.252;8.780;2023-05-10T12:27:41;9.33;9.33;6.67
77320;PMS7003;66382;52.252;8.780;2023-05-10T12:30:13;8.75;8.75;7.25
77320;PMS7003;66382;52.252;8.780;2023-05-10T12:32:44;7.50;7.50;5.75
77320;PMS7003;66382;52.252;8.780;2023-05-10T12:35:10;6.00;6.00;5.25
77320;PMS7003;66382;52.252;8.780;2023-05-10T12:37:36;7.75;7.75;5.75
77320;PMS7003;66382;52.252;8.780;2023-05-10T12:40:01;9.00;9.00;6.67
77320;PMS7003;66382;52.252;8.780;2023-05-10T12:42:27;8.00;8.00;7.00
77320;PMS7003;66382;52.252;8.780;2023-05-10T12:44:56;11.00;11.00;8.00
77320;PMS7003;66382;52.252;8.780;2023-05-10T12:47:22;8.00;8.00;6.40
77320;PMS7003;66382;52.252;8.780;2023-05-10T12:49:47;7.50;7.50;6.00
77320;PMS7003;66382;52.252;8.780;2023-05-10T12:52:13;7.50;7.50;6.00
77320;PMS7003;66382;52.252;8.780;2023-05-10T12:54:39;7.00;7.00;6.00
77320;PMS7003;66382;52.252;8.780;2023-05-10T12:57:04;7.00;7.00;6.00
77320;PMS7003;66382;52.252;8.780;2023-05-10T12:59:30;7.00;7.00;6.00
77320;PMS7003;66382;52.252;8.780;2023-05-10T13:01:58;7.25;7.25;5.00
77320;PMS7003;66382;52.252;8.780;2023-05-10T13:04:23;8.00;8.00;6.80
77320;PMS7003;66382;52.252;8.780;2023-05-10T13:06:49;9.67;9.67;7.00
77320;PMS7003;66382;52.252;8.780;2023-05-10T13:09:15;10.67;10.67;7.67
77320;PMS7003;66382;52.252;8.780;2023-05-10T13:11:41;9.00;9.00;7.00
77320;PMS7003;66382;52.252;8.780;2023-05-10T13:14:06;9.00;9.00;7.00
77320;PMS7003;66382;52.252;8.780;2023-05-10T13:16:32;8.00;8.00;6.00
77320;PMS7003;66382;52.252;8.780;2023-05-10T13:18:59;9.33;9.00;6.67
77320;PMS7003;66382;52.252;8.780;2023-05-10T13:21:25;10.25;10.25;7.50
77320;PMS7003;66382;52.252;8.780;2023-05-10T13:23:50;15.67;15.67;11.33
77320;PMS7003;66382;52.252;8.780;2023-05-10T13:26:16;12.00;12.00;8.00
77320;PMS7003;66382;52.252;8.780;2023-05-10T13:28:42;12.33;12.33;9.00
77320;PMS7003;66382;52.252;8.780;2023-05-10T13:31:08;11.75;11.75;8.25
77320;PMS7003;66382;52.252;8.780;2023-05-10T13:33:34;9.00;9.00;7.67
77320;PMS7003;66382;52.252;8.780;2023-05-10T13:36:01;10.00;10.00;8.33
77320;PMS7003;66382;52.252;8.780;2023-05-10T13:38:27;10.50;10.50;8.00
77320;PMS7003;66382;52.252;8.780;2023-05-10T13:40:52;12.67;12.67;9.00
77320;PMS7003;66382;52.252;8.780;2023-05-10T13:43:18;12.00;12.00;8.00
77320;PMS7003;66382;52.252;8.780;2023-05-10T13:45:44;10.00;10.00;7.33
77320;PMS7003;66382;52.252;8.780;2023-05-10T13:48:10;7.00;7.00;5.67
77320;PMS7003;66382;52.252;8.780;2023-05-10T13:50:35;5.00;5.00;4.33
77320;PMS7003;66382;52.252;8.780;2023-05-10T13:53:02;7.33;7.33;6.00
77320;PMS7003;66382;52.252;8.780;2023-05-10T13:55:28;7.75;7.75;6.00
77320;PMS7003;66382;52.252;8.780;2023-05-10T13:57:54;6.33;6.33;5.67
77320;PMS7003;66382;52.252;8.780;2023-05-10T14:00:19;8.33;8.33;6.00
77320;PMS7003;66382;52.252;8.780;2023-05-10T14:02:45;7.00;7.00;5.00
77320;PMS7003;66382;52.252;8.780;2023-05-10T14:05:11;11.00;11.00;8.00
77320;PMS7003;66382;52.252;8.780;2023-05-10T14:07:36;11.33;11.33;8.00
77320;PMS7003;66382;52.252;8.780;2023-05-10T14:10:04;13.00;13.00;9.00
77320;PMS7003;66382;52.252;8.780;2023-05-10T14:12:30;14.25;14.25;9.25
77320;PMS7003;66382;52.252;8.780;2023-05-10T14:14:55;13.67;13.67;11.00
77320;PMS7003;66382;52.252;8.780;2023-05-10T14:17:21;13.33;13.33;10.00
77320;PMS7003;66382;52.252;8.780;2023-05-10T14:19:47;14.67;14.67;9.33